createdAt,value
2018-07-24T00:00:11.143Z,56.24
2018-07-24T00:02:40.108Z,56.57
2018-07-24T00:05:08.990Z,56.23
2018-07-24T00:07:37.936Z,56.80
2018-07-24T00:10:06.846Z,57.17
2018-07-24T00:12:35.836Z,56.69
2018-07-24T00:15:06.770Z,57.69
2018-07-24T00:17:35.942Z,57.08
2018-07-24T00:20:05.487Z,56.99
2018-07-24T00:22:34.620Z,56.99
2018-07-24T00:25:03.674Z,57.60
2018-07-24T00:27:32.610Z,58.40
2018-07-24T00:30:01.527Z,58.22
2018-07-24T00:32:30.520Z,59.29
2018-07-24T00:34:59.472Z,59.35
2018-07-24T00:37:28.360Z,58.99
2018-07-24T00:39:57.541Z,59.25
2018-07-24T00:42:26.449Z,59.20
2018-07-24T00:44:55.321Z,59.69
2018-07-24T00:47:24.310Z,59.93
2018-07-24T00:49:53.250Z,60.40
2018-07-24T00:52:22.166Z,60.75
2018-07-24T00:54:51.068Z,60.06
2018-07-24T00:57:20.030Z,60.06
2018-07-24T00:59:48.989Z,60.28
2018-07-24T01:02:17.886Z,60.81
2018-07-24T01:04:46.794Z,60.46
2018-07-24T01:07:15.837Z,60.77
2018-07-24T01:09:45.027Z,60.51
2018-07-24T01:12:13.959Z,60.35
2018-07-24T01:14:42.856Z,60.00
2018-07-24T01:17:11.756Z,60.38
2018-07-24T01:19:40.753Z,60.03
2018-07-24T01:22:09.687Z,59.69
2018-07-24T01:24:41.028Z,59.84
2018-07-24T01:27:10.150Z,59.96
2018-07-24T01:29:39.026Z,59.91
2018-07-24T01:32:08.082Z,60.26
2018-07-24T01:34:36.993Z,59.41
2018-07-24T01:37:05.985Z,59.41
2018-07-24T01:39:34.867Z,59.79
2018-07-24T01:42:03.773Z,59.37
2018-07-24T01:44:32.740Z,59.30
2018-07-24T01:47:01.661Z,58.91
2018-07-24T01:49:30.653Z,59.35
2018-07-24T01:51:59.670Z,59.57
2018-07-24T01:54:28.564Z,59.64
2018-07-24T01:56:57.760Z,59.18
2018-07-24T01:59:27.151Z,58.86
2018-07-24T02:01:56.056Z,58.98
2018-07-24T02:04:24.987Z,58.94
2018-07-24T02:06:53.853Z,59.26
2018-07-24T02:09:22.755Z,59.00
2018-07-24T02:11:51.663Z,58.87
2018-07-24T02:14:20.558Z,58.83
2018-07-24T02:16:49.488Z,59.29
2018-07-24T02:19:18.459Z,59.22
2018-07-24T02:21:47.408Z,59.18
2018-07-24T02:24:16.283Z,58.97
2018-07-24T02:26:45.313Z,59.20
2018-07-24T02:29:14.198Z,58.73
2018-07-24T02:31:43.125Z,58.64
2018-07-24T02:34:12.005Z,58.67
2018-07-24T02:36:40.927Z,58.94
2018-07-24T02:39:12.342Z,59.11
2018-07-24T02:41:41.259Z,59.18
2018-07-24T02:44:10.526Z,58.85
2018-07-24T02:46:39.525Z,59.20
2018-07-24T02:49:08.428Z,59.25
2018-07-24T02:51:37.397Z,59.59
2018-07-24T02:54:06.459Z,59.78
2018-07-24T02:56:35.486Z,59.82
2018-07-24T02:59:05.423Z,59.67
2018-07-24T03:01:34.355Z,59.95
2018-07-24T03:04:03.262Z,59.87
2018-07-24T03:06:32.177Z,60.03
2018-07-24T03:09:01.090Z,60.58
2018-07-24T03:11:30.065Z,60.49
2018-07-24T03:13:58.992Z,60.37
2018-07-24T03:16:28.036Z,60.78
2018-07-24T03:18:56.939Z,60.76
2018-07-24T03:21:25.839Z,60.74
2018-07-24T03:23:54.717Z,60.54
2018-07-24T03:26:23.664Z,60.55
2018-07-24T03:28:52.562Z,60.60
2018-07-24T03:31:21.443Z,61.29
2018-07-24T03:33:50.411Z,61.84
2018-07-24T03:36:19.321Z,61.87
2018-07-24T03:38:48.233Z,62.26
2018-07-24T03:41:17.236Z,62.18
2018-07-24T03:43:46.210Z,62.08
2018-07-24T03:46:15.211Z,62.38
2018-07-24T03:48:44.123Z,62.81
2018-07-24T03:51:13.125Z,62.82
2018-07-24T03:53:42.032Z,63.06
2018-07-24T03:56:11.034Z,63.01
2018-07-24T03:58:39.983Z,62.94
2018-07-24T04:01:09.005Z,63.17
2018-07-24T04:03:37.924Z,63.36
2018-07-24T04:06:06.901Z,63.02
2018-07-24T04:08:35.807Z,62.96
2018-07-24T04:11:04.777Z,62.81
2018-07-24T04:13:33.663Z,63.10
2018-07-24T04:16:02.661Z,63.19
2018-07-24T04:18:38.519Z,62.91
2018-07-24T04:21:07.459Z,63.37
2018-07-24T04:23:36.439Z,62.83
2018-07-24T04:26:05.350Z,62.72
2018-07-24T04:28:34.314Z,62.98
2018-07-24T04:31:03.469Z,62.66
2018-07-24T04:33:32.323Z,62.70
2018-07-24T04:36:01.592Z,62.35
2018-07-24T04:38:30.495Z,61.98
2018-07-24T04:40:59.427Z,61.93
2018-07-24T04:43:28.352Z,61.77
2018-07-24T04:46:02.298Z,61.46
2018-07-24T04:48:31.458Z,61.63
2018-07-24T04:51:00.407Z,61.05
2018-07-24T04:53:29.350Z,61.20
2018-07-24T04:55:58.396Z,61.12
2018-07-24T04:58:27.485Z,61.28
2018-07-24T05:00:56.381Z,60.51
2018-07-24T05:03:25.302Z,60.39
2018-07-24T05:05:54.200Z,60.38
2018-07-24T05:08:23.104Z,59.99
2018-07-24T05:10:52.137Z,59.74
2018-07-24T05:13:21.102Z,59.82
2018-07-24T05:15:50.080Z,59.02
2018-07-24T05:18:19.010Z,58.69
2018-07-24T05:20:47.949Z,58.72
2018-07-24T05:23:16.886Z,58.41
2018-07-24T05:25:45.888Z,58.43
2018-07-24T05:28:14.772Z,58.45
2018-07-24T05:30:43.717Z,57.89
2018-07-24T05:33:12.703Z,58.18
2018-07-24T05:35:41.548Z,58.31
2018-07-24T05:38:10.476Z,57.88
2018-07-24T05:40:39.429Z,57.89
2018-07-24T05:43:08.317Z,57.80
2018-07-24T05:45:37.396Z,57.85
2018-07-24T05:48:06.308Z,57.72
2018-07-24T05:50:35.231Z,58.18
2018-07-24T05:53:04.159Z,58.50
2018-07-24T05:55:33.151Z,58.35
2018-07-24T05:58:02.068Z,58.44
2018-07-24T06:00:31.044Z,58.08
2018-07-24T06:03:00.053Z,58.06
2018-07-24T06:05:29.004Z,58.12
2018-07-24T06:07:57.976Z,57.46
2018-07-24T06:10:26.911Z,57.26
2018-07-24T06:12:55.852Z,57.29
2018-07-24T06:15:24.788Z,56.94
2018-07-24T06:17:53.752Z,57.25
2018-07-24T06:20:22.920Z,56.88
2018-07-24T06:22:51.816Z,56.23
2018-07-24T06:25:20.738Z,56.14
2018-07-24T06:27:49.691Z,56.33
2018-07-24T06:30:18.630Z,56.44
2018-07-24T06:32:47.552Z,56.75
2018-07-24T06:35:16.468Z,57.01
2018-07-24T06:37:45.434Z,56.84
2018-07-24T06:40:14.326Z,56.90
2018-07-24T06:42:43.266Z,57.06
2018-07-24T06:45:12.264Z,57.56
2018-07-24T06:47:41.203Z,57.07
2018-07-24T06:50:10.224Z,57.03
2018-07-24T06:52:39.147Z,57.64
2018-07-24T06:55:08.068Z,56.19
2018-07-24T06:57:37.040Z,56.53
2018-07-24T07:00:06.184Z,56.29
2018-07-24T07:02:35.134Z,55.89
2018-07-24T07:05:04.127Z,55.55
2018-07-24T07:07:33.032Z,54.33
2018-07-24T07:10:02.016Z,54.85
2018-07-24T07:12:30.997Z,53.50
2018-07-24T07:15:00.023Z,53.10
2018-07-24T07:17:29.057Z,52.24
2018-07-24T07:19:58.132Z,50.89
2018-07-24T07:22:27.105Z,50.50
2018-07-24T07:24:56.107Z,50.30
2018-07-24T07:27:25.065Z,50.50
2018-07-24T07:29:54.057Z,50.25
2018-07-24T07:32:23.043Z,50.65
2018-07-24T07:34:51.950Z,50.36
2018-07-24T07:37:20.943Z,50.26
2018-07-24T07:39:49.892Z,50.12
2018-07-24T07:42:18.859Z,49.83
2018-07-24T07:44:47.757Z,50.23
2018-07-24T07:47:16.649Z,50.23
2018-07-24T07:49:45.557Z,49.81
2018-07-24T07:52:14.527Z,49.28
2018-07-24T07:54:43.513Z,48.83
2018-07-24T07:57:12.481Z,49.86
2018-07-24T07:59:41.440Z,49.26
2018-07-24T08:02:10.508Z,48.53
2018-07-24T08:04:39.439Z,48.48
2018-07-24T08:07:08.417Z,48.60
2018-07-24T08:09:37.412Z,48.96
2018-07-24T08:12:06.340Z,48.14
2018-07-24T08:14:35.232Z,47.43
2018-07-24T08:17:04.269Z,47.29
2018-07-24T08:19:33.172Z,48.21
2018-07-24T08:22:02.254Z,48.47
2018-07-24T08:24:31.278Z,47.79
2018-07-24T08:27:00.159Z,48.50
2018-07-24T08:29:29.158Z,47.32
2018-07-24T08:31:58.024Z,46.98
2018-07-24T08:34:27.227Z,46.97
2018-07-24T08:36:56.168Z,48.06
2018-07-24T08:39:25.139Z,48.10
2018-07-24T08:41:54.142Z,47.15
2018-07-24T08:44:23.068Z,47.28
2018-07-24T08:46:51.977Z,46.83
2018-07-24T08:49:20.858Z,47.24
2018-07-24T08:51:49.772Z,46.17
2018-07-24T08:54:18.943Z,46.03
2018-07-24T08:56:47.684Z,46.71
2018-07-24T08:59:16.610Z,46.42
2018-07-24T09:04:47.970Z,44.88
2018-07-24T09:07:16.853Z,45.44
2018-07-24T09:09:45.741Z,45.39
2018-07-24T09:12:14.705Z,45.41
2018-07-24T09:14:43.636Z,45.23
2018-07-24T09:17:12.542Z,44.94
2018-07-24T09:19:41.490Z,45.64
2018-07-24T09:22:10.376Z,45.68
2018-07-24T09:24:39.294Z,45.88
2018-07-24T09:27:08.246Z,45.09
2018-07-24T09:29:37.330Z,45.04
2018-07-24T09:32:06.287Z,44.91
2018-07-24T09:34:35.207Z,44.04
2018-07-24T09:37:04.144Z,43.73
2018-07-24T09:39:33.071Z,44.30
2018-07-24T09:42:02.040Z,44.11
2018-07-24T09:44:30.916Z,43.48
2018-07-24T09:46:59.963Z,43.73
2018-07-24T09:49:28.931Z,44.17
2018-07-24T09:51:57.894Z,44.29
2018-07-24T09:54:26.918Z,44.33
2018-07-24T09:56:55.820Z,44.07
2018-07-24T09:59:24.758Z,43.58
2018-07-24T10:01:53.566Z,42.51
2018-07-24T10:04:22.552Z,43.06
2018-07-24T10:06:51.438Z,42.70
2018-07-24T10:09:20.318Z,42.30
2018-07-24T10:11:49.236Z,42.44
2018-07-24T10:14:18.114Z,42.46
2018-07-24T10:16:47.833Z,42.04
2018-07-24T10:19:16.712Z,42.57
2018-07-24T10:21:45.582Z,43.30
2018-07-24T10:24:14.489Z,43.94
2018-07-24T10:26:43.378Z,42.75
2018-07-24T10:29:12.290Z,42.19
2018-07-24T10:31:41.252Z,41.99
2018-07-24T10:34:10.137Z,41.92
2018-07-24T10:36:39.041Z,42.14
2018-07-24T10:39:09.873Z,42.10
2018-07-24T10:41:38.815Z,41.15
2018-07-24T10:44:07.908Z,41.48
2018-07-24T10:46:37.606Z,41.86
2018-07-24T10:49:07.191Z,41.88
2018-07-24T10:51:36.109Z,40.43
2018-07-24T10:54:04.981Z,40.67
2018-07-24T10:56:34.270Z,40.99
2018-07-24T10:59:03.392Z,41.77
2018-07-24T11:01:32.284Z,42.07
2018-07-24T11:04:01.160Z,42.03
2018-07-24T11:06:30.055Z,41.95
2018-07-24T11:08:58.963Z,41.57
2018-07-24T11:11:27.931Z,41.79
2018-07-24T11:13:56.847Z,41.34
2018-07-24T11:16:25.719Z,41.41
2018-07-24T11:18:54.606Z,40.36
2018-07-24T11:21:29.219Z,40.10
2018-07-24T11:23:58.136Z,40.80
2018-07-24T11:26:27.024Z,41.04
2018-07-24T11:28:55.922Z,41.17
2018-07-24T11:31:24.789Z,41.54
2018-07-24T11:33:53.655Z,41.55
2018-07-24T11:36:22.620Z,41.55
2018-07-24T11:38:51.466Z,41.58
2018-07-24T11:41:20.346Z,40.92
2018-07-24T11:43:49.269Z,40.70
2018-07-24T11:46:18.348Z,40.54
2018-07-24T11:48:47.232Z,40.87
2018-07-24T11:51:16.131Z,40.68
2018-07-24T11:53:45.068Z,40.55
2018-07-24T11:56:13.990Z,40.29
2018-07-24T11:58:42.940Z,39.80
2018-07-24T12:01:11.815Z,39.41
2018-07-24T12:03:40.705Z,39.37
2018-07-24T12:06:09.607Z,38.80
2018-07-24T12:08:38.769Z,38.88
2018-07-24T12:11:07.640Z,38.68
2018-07-24T12:13:36.490Z,38.52
2018-07-24T12:16:05.537Z,38.48
2018-07-24T12:18:34.424Z,37.53
2018-07-24T12:21:03.340Z,37.21
2018-07-24T12:23:32.232Z,36.89
2018-07-24T12:26:01.217Z,36.72
2018-07-24T12:28:30.076Z,37.70
2018-07-24T12:30:58.924Z,37.81
2018-07-24T12:33:28.383Z,37.25
2018-07-24T12:35:57.294Z,38.07
2018-07-24T12:38:26.166Z,37.52
2018-07-24T12:40:55.217Z,37.14
2018-07-24T12:43:24.148Z,37.38
2018-07-24T12:45:52.960Z,37.01
2018-07-24T12:48:21.839Z,37.14
2018-07-24T12:50:50.768Z,37.74
2018-07-24T12:53:19.714Z,37.52
2018-07-24T12:55:48.575Z,38.03
2018-07-24T12:58:17.438Z,38.26
2018-07-24T13:00:46.403Z,38.53
2018-07-24T13:03:15.280Z,38.50
2018-07-24T13:05:44.176Z,38.75
2018-07-24T13:08:13.074Z,38.61
2018-07-24T13:10:42.032Z,38.55
2018-07-24T13:13:10.903Z,38.16
2018-07-24T13:15:39.789Z,38.30
2018-07-24T13:18:08.695Z,37.86
2018-07-24T13:20:37.602Z,38.33
2018-07-24T13:23:07.335Z,37.57
2018-07-24T13:25:36.295Z,36.73
2018-07-24T13:28:05.240Z,37.10
2018-07-24T13:30:34.127Z,37.26
2018-07-24T13:33:03.048Z,37.01
2018-07-24T13:35:31.891Z,36.57
2018-07-24T13:38:00.788Z,37.28
2018-07-24T13:40:29.857Z,37.21
2018-07-24T13:42:58.780Z,37.22
2018-07-24T13:45:27.695Z,37.33
2018-07-24T13:48:01.024Z,37.07
2018-07-24T13:50:29.864Z,36.61
2018-07-24T13:52:58.935Z,37.13
2018-07-24T13:55:27.834Z,36.62
2018-07-24T13:57:57.032Z,36.23
2018-07-24T14:00:26.043Z,36.42
2018-07-24T14:02:55.302Z,36.54
2018-07-24T14:05:24.296Z,37.06
2018-07-24T14:07:53.136Z,36.73
2018-07-24T14:10:22.113Z,36.75
2018-07-24T14:12:51.042Z,36.37
2018-07-24T14:15:19.928Z,37.06
2018-07-24T14:17:49.084Z,37.43
2018-07-24T14:20:18.304Z,37.43
2018-07-24T14:22:48.320Z,37.16
2018-07-24T14:25:17.201Z,36.74
2018-07-24T14:27:46.197Z,36.25
2018-07-24T14:30:15.272Z,36.02
2018-07-24T14:32:44.199Z,35.45
2018-07-24T14:35:13.251Z,35.79
2018-07-24T14:37:42.299Z,35.66
2018-07-24T14:40:11.285Z,35.93
2018-07-24T14:42:40.235Z,36.00
2018-07-24T14:45:09.181Z,35.28
2018-07-24T14:47:38.075Z,35.11
2018-07-24T14:50:06.977Z,34.90
2018-07-24T14:52:35.989Z,34.91
2018-07-24T14:55:04.863Z,34.49
2018-07-24T14:57:33.906Z,34.55
2018-07-24T15:00:02.940Z,34.28
2018-07-24T15:02:31.966Z,34.66
2018-07-24T15:05:00.883Z,34.33
2018-07-24T15:07:29.841Z,34.26
2018-07-24T15:09:58.842Z,34.07
2018-07-24T15:12:27.767Z,34.60
2018-07-24T15:14:56.776Z,34.39
2018-07-24T15:17:25.805Z,35.19
2018-07-24T15:19:54.851Z,35.01
2018-07-24T15:22:23.737Z,34.94
2018-07-24T15:24:52.633Z,35.35
2018-07-24T15:27:21.572Z,34.90
2018-07-24T15:29:50.448Z,35.87
2018-07-24T15:32:19.425Z,35.18
2018-07-24T15:34:48.368Z,35.17
2018-07-24T15:37:17.869Z,35.14
2018-07-24T15:39:47.018Z,34.83
2018-07-24T15:42:16.121Z,34.55
2018-07-24T15:44:45.020Z,34.33
2018-07-24T15:47:14.004Z,34.71
2018-07-24T15:49:42.980Z,34.44
2018-07-24T15:52:11.910Z,34.29
2018-07-24T15:54:40.792Z,34.57
2018-07-24T15:57:09.779Z,34.73
2018-07-24T15:59:38.646Z,34.73
2018-07-24T16:02:08.113Z,35.26
2018-07-24T16:04:37.136Z,35.23
2018-07-24T16:07:06.269Z,34.83
2018-07-24T16:09:35.152Z,34.63
2018-07-24T16:12:04.147Z,35.05
2018-07-24T16:14:33.088Z,35.30
2018-07-24T16:17:01.968Z,34.63
2018-07-24T16:19:30.894Z,35.02
2018-07-24T16:21:59.869Z,34.54
2018-07-24T16:24:28.810Z,33.86
2018-07-24T16:26:57.716Z,33.98
2018-07-24T16:29:26.631Z,34.41
2018-07-24T16:31:56.614Z,34.50
2018-07-24T16:34:25.690Z,33.56
2018-07-24T16:36:54.757Z,34.07
2018-07-24T16:39:23.611Z,34.54
2018-07-24T16:41:52.579Z,33.86
2018-07-24T16:44:21.804Z,33.85
2018-07-24T16:46:50.718Z,34.17
2018-07-24T16:49:19.600Z,33.78
2018-07-24T16:51:48.705Z,33.87
2018-07-24T16:54:17.586Z,33.64
2018-07-24T16:56:46.526Z,33.33
2018-07-24T16:59:15.527Z,32.65
2018-07-24T17:01:44.507Z,32.57
2018-07-24T17:04:14.427Z,32.82
2018-07-24T17:06:43.311Z,32.92
2018-07-24T17:09:12.920Z,33.15
2018-07-24T17:11:42.034Z,33.05
2018-07-24T17:14:10.930Z,33.44
2018-07-24T17:16:39.853Z,33.21
2018-07-24T17:19:08.768Z,32.65
2018-07-24T17:21:37.777Z,32.41
2018-07-24T17:24:06.691Z,33.04
2018-07-24T17:26:35.716Z,32.90
2018-07-24T17:29:04.549Z,32.53
2018-07-24T17:31:33.452Z,32.12
2018-07-24T17:34:09.618Z,31.79
2018-07-24T17:36:38.493Z,31.50
2018-07-24T17:39:08.686Z,31.69
2018-07-24T17:41:37.703Z,32.13
2018-07-24T17:44:07.001Z,32.21
2018-07-24T17:46:36.028Z,31.89
2018-07-24T17:49:05.272Z,32.47
2018-07-24T17:51:34.235Z,31.68
2018-07-24T17:54:03.154Z,32.24
2018-07-24T17:56:32.054Z,32.05
2018-07-24T17:59:01.037Z,31.83
2018-07-24T18:01:29.947Z,31.96
2018-07-24T18:03:58.868Z,32.22
2018-07-24T18:06:27.769Z,32.65
2018-07-24T18:08:56.759Z,32.59
2018-07-24T18:11:25.723Z,32.39
2018-07-24T18:13:54.619Z,32.66
2018-07-24T18:16:23.774Z,32.03
2018-07-24T18:18:52.719Z,32.62
2018-07-24T18:21:21.640Z,32.30
2018-07-24T18:23:50.511Z,32.65
2018-07-24T18:26:19.542Z,32.70
2018-07-24T18:28:48.413Z,33.51
2018-07-24T18:31:17.285Z,33.01
2018-07-24T18:33:46.299Z,33.88
2018-07-24T18:36:15.193Z,34.37
2018-07-24T18:38:44.169Z,34.23
2018-07-24T18:41:13.044Z,34.05
2018-07-24T18:43:41.940Z,34.47
2018-07-24T18:46:10.857Z,34.52
2018-07-24T18:48:39.782Z,33.98
2018-07-24T18:51:08.722Z,33.99
2018-07-24T18:53:37.596Z,34.35
2018-07-24T18:56:06.510Z,34.61
2018-07-24T18:58:36.258Z,35.00
2018-07-24T19:01:05.302Z,34.53
2018-07-24T19:03:34.194Z,35.29
2018-07-24T19:06:03.168Z,35.49
2018-07-24T19:08:32.052Z,35.19
2018-07-24T19:11:00.966Z,35.08
2018-07-24T19:13:29.862Z,34.83
2018-07-24T19:15:58.732Z,35.63
2018-07-24T19:18:27.716Z,35.13
2018-07-24T19:20:56.585Z,36.40
2018-07-24T19:23:25.486Z,37.33
2018-07-24T19:25:54.519Z,37.38
2018-07-24T19:28:23.424Z,37.66
2018-07-24T19:30:52.432Z,38.24
2018-07-24T19:33:21.386Z,37.94
2018-07-24T19:35:50.264Z,38.22
2018-07-24T19:38:19.241Z,37.98
2018-07-24T19:40:48.223Z,37.73
2018-07-24T19:43:17.240Z,38.03
2018-07-24T19:45:46.118Z,37.98
2018-07-24T19:48:14.992Z,38.45
2018-07-24T19:50:43.966Z,39.04
2018-07-24T19:53:12.911Z,38.47
2018-07-24T19:55:41.786Z,38.58
2018-07-24T19:58:10.726Z,38.96
2018-07-24T20:00:39.662Z,39.57
2018-07-24T20:03:08.721Z,39.62
2018-07-24T20:05:37.664Z,39.75
2018-07-24T20:08:06.712Z,39.75
2018-07-24T20:10:35.672Z,39.80
2018-07-24T20:13:04.560Z,40.06
2018-07-24T20:15:33.613Z,39.83
2018-07-24T20:18:03.592Z,39.79
2018-07-24T20:20:32.534Z,40.34
2018-07-24T20:23:01.557Z,40.37
2018-07-24T20:25:30.586Z,40.52
2018-07-24T20:27:59.570Z,40.55
2018-07-24T20:30:28.756Z,40.91
2018-07-24T20:32:57.696Z,40.34
2018-07-24T20:35:26.727Z,41.10
2018-07-24T20:37:55.626Z,42.13
2018-07-24T20:40:24.573Z,42.77
2018-07-24T20:42:53.686Z,43.18
2018-07-24T20:45:22.674Z,42.92
2018-07-24T20:47:51.578Z,43.05
2018-07-24T20:50:20.591Z,43.05
2018-07-24T20:52:49.574Z,43.39
2018-07-24T20:55:18.494Z,43.32
2018-07-24T20:57:48.951Z,44.01
2018-07-24T21:00:18.167Z,44.00
2018-07-24T21:02:47.066Z,44.66
2018-07-24T21:05:16.058Z,44.98
2018-07-24T21:07:44.990Z,45.08
2018-07-24T21:10:16.852Z,44.66
2018-07-24T21:12:46.875Z,44.85
2018-07-24T21:15:16.322Z,45.19
2018-07-24T21:17:45.287Z,44.97
2018-07-24T21:20:14.227Z,45.35
2018-07-24T21:22:43.180Z,45.53
2018-07-24T21:25:12.202Z,45.40
2018-07-24T21:27:41.071Z,45.50
2018-07-24T21:30:10.471Z,45.06
2018-07-24T21:32:39.452Z,45.22
2018-07-24T21:35:08.382Z,44.93
2018-07-24T21:37:37.330Z,45.13
2018-07-24T21:40:07.344Z,44.93
2018-07-24T21:42:36.480Z,44.88
2018-07-24T21:45:05.394Z,44.22
2018-07-24T21:47:34.282Z,44.58
2018-07-24T21:50:03.338Z,44.74
2018-07-24T21:52:32.235Z,45.04
2018-07-24T21:55:01.137Z,44.47
2018-07-24T21:57:30.068Z,44.58
2018-07-24T21:59:58.930Z,44.03
2018-07-24T22:02:27.950Z,44.56
2018-07-24T22:04:56.902Z,44.90
2018-07-24T22:07:25.811Z,44.72
2018-07-24T22:09:55.756Z,45.05
2018-07-24T22:12:25.196Z,45.56
2018-07-24T22:14:54.200Z,45.31
2018-07-24T22:17:24.126Z,45.10
2018-07-24T22:19:53.215Z,44.87
2018-07-24T22:22:23.137Z,45.05
2018-07-24T22:24:52.018Z,45.22
2018-07-24T22:27:21.061Z,45.54
2018-07-24T22:29:50.047Z,45.35
2018-07-24T22:32:20.058Z,45.71
2018-07-24T22:34:49.938Z,46.17
2018-07-24T22:37:18.854Z,45.97
2018-07-24T22:39:47.826Z,46.40
2018-07-24T22:42:16.718Z,46.16
2018-07-24T22:44:45.574Z,46.13
2018-07-24T22:47:14.447Z,46.16
2018-07-24T22:49:46.817Z,46.65
2018-07-24T22:52:15.699Z,47.10
2018-07-24T22:54:45.374Z,46.55
2018-07-24T22:57:14.241Z,46.26
2018-07-24T22:59:43.250Z,46.28
2018-07-24T23:02:12.135Z,46.91
2018-07-24T23:04:41.106Z,46.86
2018-07-24T23:07:10.062Z,46.47
2018-07-24T23:09:39.081Z,46.32
2018-07-24T23:12:08.066Z,47.01
2018-07-24T23:14:37.018Z,46.71
2018-07-24T23:17:06.094Z,46.88
2018-07-24T23:19:35.051Z,46.89
2018-07-24T23:22:03.966Z,47.50
2018-07-24T23:24:32.844Z,47.38
2018-07-24T23:27:01.732Z,47.34
2018-07-24T23:29:30.700Z,47.98
2018-07-24T23:31:59.778Z,48.81
2018-07-24T23:34:28.774Z,48.79
2018-07-24T23:36:57.726Z,48.45
2018-07-24T23:39:26.705Z,48.39
2018-07-24T23:41:55.700Z,48.70
2018-07-24T23:44:24.650Z,49.01
2018-07-24T23:46:53.576Z,48.73
2018-07-24T23:49:22.460Z,48.29
2018-07-24T23:51:52.052Z,48.69
2018-07-24T23:54:21.944Z,48.54
2018-07-24T23:56:50.910Z,48.44
2018-07-24T23:59:20.268Z,48.96
